Kennewick, Washington
Current Conditions -  °F | °C
As of 12:53 PM on Friday 31 Oct 2014 (Local Time) from KPSC Reporting Station
Light Rain Light Rain  
Wind Chill: 54°   Ceiling: 4800
Heat Index: 54°   Visibility: 7mi
Dew Point: 52°   Wind: 6mph
Humidity: 93%   Direction: 200°SSW
Pressure: 29.77"   Gusts: NA
Location:  46.21°N, 119.11°W
Report Text: KPSC 311953Z 20005KT 7SM -RA BKN048 OVC055 12/11 A2977 RMK AO2 RAB43 SLP082 P0000 T01220111
Loading
Personal Weather Stations






























Interactive Weather Map New forecast layout! Learn more

10-Day Weather Forecast

Advertisements
Track Severe Weather on mobile